Terminal Aerodrome Forecast
Issued by NWS Paducah, KY

Home | Current Version | Previous Version | Text Only | Print | Product List | Glossary On
Versions: 1 2 3 4 5 6 7 8 9 10 11 12 13 14 15
000
FTUS43 KPAH 140200 AAA
TAFPAH
TAF AMD
KPAH 140255Z 1403/1424 22005KT P6SM FEW100
     FM140600 20005KT 6SM -SHRA BKN045 OVC100
      TEMPO 1408/1410 3SM TSRA BR BKN040CB
     FM141300 27006KT P6SM SCT100=

USA.gov is the U.S. government's official web portal to all federal, state and local government web resources and services.